YM Venus — 9HCB8 — position and weather

sailwx.info

Track history (hours):
 
Tides and Currents Weather Stations Pressure Air Temp Water Temp Dewpoint Dewpoint Depression Visibility Wind Speed Wind Dir Waves Ship Positions

YM Venus

Last reported at 2015-Jul-05 11:12 UTC. Time now 2015-Jul-05 13:23 UTC.
Position N 36°24' W 008°32'.

Length 105 m; draft 5.5 m.

Type: Tanker. MMSI: 215826000.

Date/timePositionNaut miles runAvg speedWind from/ knotsBaromVisibWave heightAir tempDewpointWater temp
2015-Jul-05 11:12N 36°24' W 008°32'1013.8
2015-Jul-05 10:27N 36°27' W 008°45'1213.6
2015-Jul-05 09:33N 36°30' W 008°59'1913.0
2015-Jul-05 08:08N 36°36' W 009°21'813.7
2015-Jul-05 07:33N 36°42' W 009°28'1312.9
2015-Jul-05 06:33N 36°54' W 009°35'1313.3
2015-Jul-05 05:33N 37°07' W 009°38'1313.3
2015-Jul-05 04:33N 37°20' W 009°42'1313.2
2015-Jul-05 03:33N 37°33' W 009°46'1313.3
2015-Jul-05 02:33N 37°45' W 009°50'1313.4
2015-Jul-05 01:33N 37°58' W 009°54'1413.8
2015-Jul-05 00:34N 38°12' W 009°58'1413.6
2015-Jul-04 23:33N 38°25' W 010°02'1313.4
2015-Jul-04 22:33N 38°38' W 010°05'1313.6
2015-Jul-04 21:34N 38°52' W 010°06'1414.1
2015-Jul-04 20:33N 39°06' W 010°01'1414.0
2015-Jul-04 19:33N 39°19' W 009°57'  
2015-Jun-30 05:32N 40°36' W 008°52'1111.5
2015-Jun-30 04:33N 40°26' W 008°60'1211.9
2015-Jun-30 03:33N 40°17' W 009°09'1211.8
2015-Jun-30 02:33N 40°08' W 009°19'1111.2
2015-Jun-30 01:33N 39°59' W 009°28'1212.0
2015-Jun-30 00:33N 39°50' W 009°38'1211.7
2015-Jun-29 23:33N 39°41' W 009°48'1111.5
2015-Jun-29 22:33N 39°31' W 009°57'1111.2
2015-Jun-29 21:33N 39°20' W 009°57'1111.2
2015-Jun-29 20:33N 39°09' W 009°57'1110.7
2015-Jun-29 19:34N 38°58' W 009°57'121119.4
2015-Jun-29 18:33N 36°60' W 009°27'99100.6
2015-Jun-29 17:34N 38°36' W 009°55'1111.3
2015-Jun-29 16:33N 38°25' W 009°52'1111.1
2015-Jun-29 15:33N 38°14' W 009°48'1110.9
2015-Jun-29 14:34N 38°04' W 009°45'1110.8
2015-Jun-29 13:33N 37°53' W 009°42'1110.9
2015-Jun-29 12:33N 37°43' W 009°39'1111.3
2015-Jun-29 11:34N 37°32' W 009°36'1111.3
2015-Jun-29 10:33N 37°21' W 009°33'1111.2
2015-Jun-29 09:33N 37°10' W 009°29'1111.1
2015-Jun-29 08:34N 36°59' W 009°27'1111.0
2015-Jun-29 07:34N 36°48' W 009°23'1110.8
2015-Jun-29 06:33N 36°41' W 009°13'1110.9
2015-Jun-29 05:34N 36°38' W 008°60'1111.1
2015-Jun-29 04:34N 36°36' W 008°46'1111.4
2015-Jun-29 03:33N 36°34' W 008°32'1211.6
2015-Jun-29 02:33N 36°31' W 008°18'1211.6
2015-Jun-29 01:33N 36°28' W 008°04'5911.8
2015-Jun-28 20:33N 36°10' W 006°55'6610.9
2015-Jun-28 14:32N 35°58' W 005°35'10 9.8
2015-Jun-28 13:34N 36°01' W 005°23'12811.2
2015-Jun-28 02:04N 36°21' W 002°47'611.5
2015-Jun-28 01:33N 36°22' W 002°39'1212.1
2015-Jun-28 00:33N 36°24' W 002°24'6712.2
2015-Jun-27 19:06N 36°41' W 001°04'712.0
2015-Jun-27 18:33N 36°43' W 000°56'1211.8
2015-Jun-27 17:33N 36°47' W 000°42'1211.9
2015-Jun-27 16:33N 36°51' W 000°28'1211.7
2015-Jun-27 15:34N 36°54' W 000°14'1211.8
2015-Jun-27 14:33N 36°57' W 000°00'1211.9
2015-Jun-27 13:33N 36°59' E 000°15'1212.0
2015-Jun-27 12:33N 37°01' E 000°29'1212.2
2015-Jun-27 11:33N 37°03' E 000°44'1312.5
2015-Jun-27 10:33N 37°05' E 000°60'1312.8
2015-Jun-27 09:33N 37°06' E 001°16'1312.6
2015-Jun-27 08:33N 37°07' E 001°32'1212.5
2015-Jun-27 07:33N 37°10' E 001°47'1212.0
2015-Jun-27 06:33N 37°11' E 002°02'1212.2
2015-Jun-27 05:33N 37°13' E 002°17'1212.2
2015-Jun-27 04:33N 37°15' E 002°32'1212.1
2015-Jun-27 03:33N 37°16' E 002°47'1211.9
2015-Jun-27 02:33N 37°18' E 003°02'1211.7
2015-Jun-27 01:33N 37°20' E 003°17'1211.7
2015-Jun-27 00:33N 37°22' E 003°31'1211.7
2015-Jun-26 23:33N 37°23' E 003°46'1211.6
2015-Jun-26 22:33N 37°25' E 004°00'1211.7
2015-Jun-26 21:33N 37°26' E 004°15'1211.9
2015-Jun-26 20:33N 37°28' E 004°30'3911.8
2015-Jun-26 17:17N 37°33' E 005°18'2211.5
2015-Jun-26 15:24N 37°36' E 005°45'23211.6
2015-Jun-25 19:22N 37°33' E 010°38'5611.5
2015-Jun-25 14:32N 37°11' E 011°42'1512.3
2015-Jun-25 13:18N 37°06' E 011°60'  
Track history (hours):
 
Tides and Currents Weather Stations Pressure Air Temp Water Temp Dewpoint Dewpoint Depression Visibility Wind Speed Wind Dir Waves Ship Positions

YM Venus

Last reported at 2015-Jul-05 11:12 UTC. Time now 2015-Jul-05 13:23 UTC.
Position N 36°24' W 008°32'.

Length 105 m; draft 5.5 m.

Type: Tanker. MMSI: 215826000.

Date/timePositionNaut miles runAvg speedWind from/ knotsBaromVisibWave heightAir tempDewpointWater temp
2015-Jul-05 11:12N 36°24' W 008°32'1013.8
2015-Jul-05 10:27N 36°27' W 008°45'1213.6
2015-Jul-05 09:33N 36°30' W 008°59'1913.0
2015-Jul-05 08:08N 36°36' W 009°21'813.7
2015-Jul-05 07:33N 36°42' W 009°28'1312.9
2015-Jul-05 06:33N 36°54' W 009°35'1313.3
2015-Jul-05 05:33N 37°07' W 009°38'1313.3
2015-Jul-05 04:33N 37°20' W 009°42'1313.2
2015-Jul-05 03:33N 37°33' W 009°46'1313.3
2015-Jul-05 02:33N 37°45' W 009°50'1313.4
2015-Jul-05 01:33N 37°58' W 009°54'1413.8
2015-Jul-05 00:34N 38°12' W 009°58'1413.6
2015-Jul-04 23:33N 38°25' W 010°02'1313.4
2015-Jul-04 22:33N 38°38' W 010°05'1313.6
2015-Jul-04 21:34N 38°52' W 010°06'1414.1
2015-Jul-04 20:33N 39°06' W 010°01'1414.0
2015-Jul-04 19:33N 39°19' W 009°57'  
2015-Jun-30 05:32N 40°36' W 008°52'1111.5
2015-Jun-30 04:33N 40°26' W 008°60'1211.9
2015-Jun-30 03:33N 40°17' W 009°09'1211.8
2015-Jun-30 02:33N 40°08' W 009°19'1111.2
2015-Jun-30 01:33N 39°59' W 009°28'1212.0
2015-Jun-30 00:33N 39°50' W 009°38'1211.7
2015-Jun-29 23:33N 39°41' W 009°48'1111.5
2015-Jun-29 22:33N 39°31' W 009°57'1111.2
2015-Jun-29 21:33N 39°20' W 009°57'1111.2
2015-Jun-29 20:33N 39°09' W 009°57'1110.7
2015-Jun-29 19:34N 38°58' W 009°57'121119.4
2015-Jun-29 18:33N 36°60' W 009°27'99100.6
2015-Jun-29 17:34N 38°36' W 009°55'1111.3
2015-Jun-29 16:33N 38°25' W 009°52'1111.1
2015-Jun-29 15:33N 38°14' W 009°48'1110.9
2015-Jun-29 14:34N 38°04' W 009°45'1110.8
2015-Jun-29 13:33N 37°53' W 009°42'1110.9
2015-Jun-29 12:33N 37°43' W 009°39'1111.3
2015-Jun-29 11:34N 37°32' W 009°36'1111.3
2015-Jun-29 10:33N 37°21' W 009°33'1111.2
2015-Jun-29 09:33N 37°10' W 009°29'1111.1
2015-Jun-29 08:34N 36°59' W 009°27'1111.0
2015-Jun-29 07:34N 36°48' W 009°23'1110.8
2015-Jun-29 06:33N 36°41' W 009°13'1110.9
2015-Jun-29 05:34N 36°38' W 008°60'1111.1
2015-Jun-29 04:34N 36°36' W 008°46'1111.4
2015-Jun-29 03:33N 36°34' W 008°32'1211.6
2015-Jun-29 02:33N 36°31' W 008°18'1211.6
2015-Jun-29 01:33N 36°28' W 008°04'5911.8
2015-Jun-28 20:33N 36°10' W 006°55'6610.9
2015-Jun-28 14:32N 35°58' W 005°35'10 9.8
2015-Jun-28 13:34N 36°01' W 005°23'12811.2
2015-Jun-28 02:04N 36°21' W 002°47'611.5
2015-Jun-28 01:33N 36°22' W 002°39'1212.1
2015-Jun-28 00:33N 36°24' W 002°24'6712.2
2015-Jun-27 19:06N 36°41' W 001°04'712.0
2015-Jun-27 18:33N 36°43' W 000°56'1211.8
2015-Jun-27 17:33N 36°47' W 000°42'1211.9
2015-Jun-27 16:33N 36°51' W 000°28'1211.7
2015-Jun-27 15:34N 36°54' W 000°14'1211.8
2015-Jun-27 14:33N 36°57' W 000°00'1211.9
2015-Jun-27 13:33N 36°59' E 000°15'1212.0
2015-Jun-27 12:33N 37°01' E 000°29'1212.2
2015-Jun-27 11:33N 37°03' E 000°44'1312.5
2015-Jun-27 10:33N 37°05' E 000°60'1312.8
2015-Jun-27 09:33N 37°06' E 001°16'1312.6
2015-Jun-27 08:33N 37°07' E 001°32'1212.5
2015-Jun-27 07:33N 37°10' E 001°47'1212.0
2015-Jun-27 06:33N 37°11' E 002°02'1212.2
2015-Jun-27 05:33N 37°13' E 002°17'1212.2
2015-Jun-27 04:33N 37°15' E 002°32'1212.1
2015-Jun-27 03:33N 37°16' E 002°47'1211.9
2015-Jun-27 02:33N 37°18' E 003°02'1211.7
2015-Jun-27 01:33N 37°20' E 003°17'1211.7
2015-Jun-27 00:33N 37°22' E 003°31'1211.7
2015-Jun-26 23:33N 37°23' E 003°46'1211.6
2015-Jun-26 22:33N 37°25' E 004°00'1211.7
2015-Jun-26 21:33N 37°26' E 004°15'1211.9
2015-Jun-26 20:33N 37°28' E 004°30'3911.8
2015-Jun-26 17:17N 37°33' E 005°18'2211.5
2015-Jun-26 15:24N 37°36' E 005°45'23211.6
2015-Jun-25 19:22N 37°33' E 010°38'5611.5
2015-Jun-25 14:32N 37°11' E 011°42'1512.3
2015-Jun-25 13:18N 37°06' E 011°60'  

Dump ship's entire track history